createdAt,value
2023-04-25T00:01:52.367Z,7.70
2023-04-25T00:04:19.319Z,7.20
2023-04-25T00:06:46.341Z,6.43
2023-04-25T00:09:12.853Z,6.75
2023-04-25T00:11:39.440Z,6.20
2023-04-25T00:14:06.030Z,6.82
2023-04-25T00:16:34.911Z,6.60
2023-04-25T00:19:03.288Z,5.68
2023-04-25T00:21:30.134Z,6.38
2023-04-25T00:23:57.045Z,6.55
2023-04-25T00:26:23.784Z,6.75
2023-04-25T00:28:50.457Z,6.50
2023-04-25T00:31:17.107Z,6.35
2023-04-25T00:33:43.717Z,5.80
2023-04-25T00:36:10.677Z,5.93
2023-04-25T00:38:37.747Z,6.10
2023-04-25T00:41:05.361Z,5.90
2023-04-25T00:43:33.814Z,5.45
2023-04-25T00:46:01.683Z,5.13
2023-04-25T00:48:28.534Z,5.80
2023-04-25T00:50:57.616Z,5.43
2023-04-25T00:53:25.621Z,5.40
2023-04-25T00:55:52.585Z,6.20
2023-04-25T00:58:20.826Z,4.80
2023-04-25T01:00:48.756Z,4.45
2023-04-25T01:03:21.418Z,5.15
2023-04-25T01:05:49.107Z,5.00
2023-04-25T01:08:15.883Z,5.43
2023-04-25T01:10:43.559Z,4.68
2023-04-25T01:13:10.333Z,5.10
2023-04-25T01:15:37.101Z,4.55
2023-04-25T01:18:06.444Z,4.53
2023-04-25T01:20:34.062Z,4.95
2023-04-25T01:23:01.486Z,5.03
2023-04-25T01:25:28.019Z,4.45
2023-04-25T01:27:54.648Z,4.45
2023-04-25T01:30:21.269Z,4.45
2023-04-25T01:32:49.130Z,4.80
2023-04-25T01:35:15.942Z,4.35
2023-04-25T01:37:44.014Z,4.10
2023-04-25T01:40:12.520Z,4.18
2023-04-25T01:42:41.658Z,4.18
2023-04-25T01:45:09.860Z,4.55
2023-04-25T01:47:36.470Z,4.25
2023-04-25T01:50:08.389Z,4.15
2023-04-25T01:52:35.188Z,4.28
2023-04-25T01:55:03.141Z,4.00
2023-04-25T01:57:29.649Z,4.68
2023-04-25T02:00:04.378Z,4.00
2023-04-25T02:02:31.151Z,4.00
2023-04-25T02:04:57.767Z,4.13
2023-04-25T02:07:24.307Z,4.43
2023-04-25T02:09:50.919Z,4.05
2023-04-25T02:12:17.446Z,3.90
2023-04-25T02:14:44.078Z,4.40
2023-04-25T02:17:11.037Z,3.97
2023-04-25T02:19:37.712Z,3.65
2023-04-25T02:22:04.291Z,4.15
2023-04-25T02:24:30.965Z,3.55
2023-04-25T02:26:57.482Z,4.15
2023-04-25T02:29:24.364Z,3.60
2023-04-25T02:31:51.314Z,3.80
2023-04-25T02:34:17.955Z,3.72
2023-04-25T02:36:44.515Z,3.92
2023-04-25T02:39:11.712Z,3.42
2023-04-25T02:41:38.364Z,3.50
2023-04-25T02:44:04.971Z,3.20
2023-04-25T02:46:39.090Z,3.47
2023-04-25T02:49:06.734Z,3.50
2023-04-25T02:51:33.550Z,3.03
2023-04-25T02:54:00.374Z,3.10
2023-04-25T02:56:27.804Z,3.47
2023-04-25T02:58:54.684Z,3.00
2023-04-25T03:01:21.414Z,3.35
2023-04-25T03:03:48.136Z,3.10
2023-04-25T03:06:15.764Z,3.05
2023-04-25T03:08:42.335Z,3.33
2023-04-25T03:11:08.911Z,3.40
2023-04-25T03:13:35.548Z,3.17
2023-04-25T03:16:02.231Z,3.30
2023-04-25T03:18:28.888Z,3.22
2023-04-25T03:20:55.472Z,3.00
2023-04-25T03:23:22.207Z,2.70
2023-04-25T03:25:48.757Z,2.88
2023-04-25T03:28:15.590Z,2.75
2023-04-25T03:30:42.157Z,2.60
2023-04-25T03:33:08.676Z,2.90
2023-04-25T03:35:35.211Z,2.72
2023-04-25T03:38:01.747Z,2.85
2023-04-25T03:40:28.281Z,2.58
2023-04-25T03:42:54.982Z,2.88
2023-04-25T03:45:21.535Z,3.03
2023-04-25T03:47:48.097Z,2.85
2023-04-25T03:50:14.712Z,2.47
2023-04-25T03:52:41.325Z,2.67
2023-04-25T03:55:08.279Z,2.72
2023-04-25T03:57:34.836Z,2.22
2023-04-25T04:00:01.442Z,2.83
2023-04-25T04:02:28.159Z,2.25
2023-04-25T04:04:54.941Z,2.30
2023-04-25T04:07:21.703Z,2.65
2023-04-25T04:09:48.257Z,2.50
2023-04-25T04:12:14.757Z,2.58
2023-04-25T04:14:41.562Z,2.83
2023-04-25T04:17:08.161Z,2.35
2023-04-25T04:19:34.721Z,2.20
2023-04-25T04:22:01.291Z,2.78
2023-04-25T04:24:27.807Z,2.30
2023-04-25T04:26:54.383Z,2.50
2023-04-25T04:29:24.037Z,1.80
2023-04-25T04:31:51.979Z,2.17
2023-04-25T04:34:19.414Z,2.58
2023-04-25T04:36:47.234Z,2.38
2023-04-25T04:39:14.585Z,2.60
2023-04-25T04:41:41.475Z,2.10
2023-04-25T04:44:09.901Z,2.50
2023-04-25T04:46:38.852Z,2.25
2023-04-25T04:49:18.359Z,2.38
2023-04-25T04:51:48.026Z,1.90
2023-04-25T04:54:14.687Z,2.65
2023-04-25T04:56:41.291Z,2.42
2023-04-25T04:59:08.588Z,2.00
2023-04-25T05:01:38.320Z,2.50
2023-04-25T05:04:05.210Z,2.03
2023-04-25T05:06:32.193Z,2.10
2023-04-25T05:08:59.011Z,2.33
2023-04-25T05:11:28.775Z,2.30
2023-04-25T05:13:55.440Z,2.50
2023-04-25T05:16:22.034Z,2.20
2023-04-25T05:18:49.025Z,2.08
2023-04-25T05:21:15.610Z,1.92
2023-04-25T05:23:42.110Z,2.67
2023-04-25T05:26:14.637Z,2.63
2023-04-25T05:28:42.673Z,1.98
2023-04-25T05:31:11.337Z,2.50
2023-04-25T05:33:37.908Z,2.22
2023-04-25T05:36:04.725Z,2.47
2023-04-25T05:38:33.239Z,2.20
2023-04-25T05:41:01.410Z,2.40
2023-04-25T05:43:27.898Z,2.20
2023-04-25T05:45:54.523Z,2.35
2023-04-25T05:48:21.154Z,2.25
2023-04-25T05:50:47.671Z,2.10
2023-04-25T05:53:14.204Z,2.35
2023-04-25T05:55:40.751Z,1.90
2023-04-25T05:58:08.092Z,2.42
2023-04-25T06:00:34.791Z,1.98
2023-04-25T06:03:04.562Z,2.20
2023-04-25T06:05:31.613Z,2.17
2023-04-25T06:07:58.343Z,2.30
2023-04-25T06:10:24.875Z,2.28
2023-04-25T06:12:51.417Z,2.05
2023-04-25T06:15:28.096Z,2.13
2023-04-25T06:17:56.086Z,2.40
2023-04-25T06:20:24.969Z,1.90
2023-04-25T06:22:52.790Z,2.15
2023-04-25T06:25:19.451Z,2.20
2023-04-25T06:27:46.014Z,1.90
2023-04-25T06:30:16.185Z,1.95
2023-04-25T06:32:42.862Z,2.10
2023-04-25T06:35:09.851Z,2.30
2023-04-25T06:37:36.402Z,2.15
2023-04-25T06:40:03.450Z,1.65
2023-04-25T06:42:29.968Z,1.80
2023-04-25T06:44:56.823Z,1.80
2023-04-25T06:47:23.360Z,1.65
2023-04-25T06:49:50.547Z,2.08
2023-04-25T06:52:19.039Z,2.10
2023-04-25T06:54:46.207Z,1.75
2023-04-25T06:57:12.778Z,1.92
2023-04-25T06:59:39.335Z,1.85
2023-04-25T07:02:07.039Z,2.25
2023-04-25T07:04:33.860Z,2.10
2023-04-25T07:07:01.971Z,2.30
2023-04-25T07:09:28.525Z,2.13
2023-04-25T07:11:55.063Z,2.30
2023-04-25T07:14:21.613Z,2.58
2023-04-25T07:16:48.286Z,2.53
2023-04-25T07:19:15.044Z,2.40
2023-04-25T07:21:41.584Z,2.13
2023-04-25T07:24:08.156Z,2.50
2023-04-25T07:26:34.670Z,3.05
2023-04-25T07:29:01.440Z,3.47
2023-04-25T07:31:28.027Z,3.03
2023-04-25T07:33:54.587Z,3.53
2023-04-25T07:36:22.007Z,2.97
2023-04-25T07:38:48.658Z,3.10
2023-04-25T07:41:15.301Z,3.35
2023-04-25T07:43:41.809Z,2.97
2023-04-25T07:46:08.450Z,3.17
2023-04-25T07:48:35.021Z,3.20
2023-04-25T07:51:01.676Z,2.55
2023-04-25T07:53:28.238Z,2.95
2023-04-25T07:55:54.787Z,2.72
2023-04-25T07:58:22.925Z,2.38
2023-04-25T08:00:49.823Z,2.67
2023-04-25T08:03:16.631Z,2.45
2023-04-25T08:05:43.794Z,2.97
2023-04-25T08:08:10.641Z,2.55
2023-04-25T08:10:37.202Z,2.47
2023-04-25T08:13:03.996Z,2.30
2023-04-25T08:15:30.774Z,2.08
2023-04-25T08:17:57.417Z,2.65
2023-04-25T08:20:24.081Z,2.45
2023-04-25T08:22:50.682Z,2.65
2023-04-25T08:25:17.248Z,2.40
2023-04-25T08:27:44.320Z,2.38
2023-04-25T08:30:11.201Z,2.53
2023-04-25T08:32:40.915Z,2.53
2023-04-25T08:35:07.873Z,2.50
2023-04-25T08:37:34.489Z,1.83
2023-04-25T08:40:01.184Z,2.38
2023-04-25T08:42:29.917Z,2.03
2023-04-25T08:44:57.269Z,2.00
2023-04-25T08:47:24.557Z,2.20
2023-04-25T08:49:54.328Z,1.95
2023-04-25T08:52:28.730Z,1.67
2023-04-25T08:54:56.404Z,2.00
2023-04-25T08:57:23.601Z,2.17
2023-04-25T08:59:50.401Z,1.88
2023-04-25T09:02:19.041Z,2.15
2023-04-25T09:04:46.310Z,1.75
2023-04-25T09:07:13.269Z,1.80
2023-04-25T09:09:40.427Z,2.13
2023-04-25T09:12:07.228Z,1.83
2023-04-25T09:14:33.774Z,1.90
2023-04-25T09:17:02.426Z,1.88
2023-04-25T09:19:40.232Z,1.40
2023-04-25T09:22:09.116Z,1.73
2023-04-25T09:24:39.843Z,2.17
2023-04-25T09:27:08.035Z,1.67
2023-04-25T09:29:37.228Z,1.98
2023-04-25T09:32:17.085Z,2.00
2023-04-25T09:34:51.882Z,1.95
2023-04-25T09:37:21.422Z,1.75
2023-04-25T09:39:53.545Z,1.55
2023-04-25T09:42:24.792Z,1.80
2023-04-25T09:44:54.388Z,1.40
2023-04-25T09:47:23.500Z,1.33
2023-04-25T09:49:50.948Z,1.42
2023-04-25T09:52:24.541Z,1.45
2023-04-25T09:54:52.820Z,1.42
2023-04-25T09:57:23.816Z,1.42
2023-04-25T09:59:55.121Z,1.20
2023-04-25T10:02:24.032Z,1.67
2023-04-25T10:04:53.974Z,1.13
2023-04-25T10:07:22.383Z,1.40
2023-04-25T10:09:53.090Z,1.10
2023-04-25T10:12:20.957Z,1.58
2023-04-25T10:14:48.618Z,1.10
2023-04-25T10:17:15.239Z,1.20
2023-04-25T10:19:42.000Z,1.27
2023-04-25T10:22:21.141Z,1.23
2023-04-25T10:24:48.309Z,1.30
2023-04-25T10:27:15.541Z,0.85
2023-04-25T10:29:44.299Z,1.30
2023-04-25T10:32:14.064Z,1.20
2023-04-25T10:34:41.744Z,0.82
2023-04-25T10:37:12.263Z,1.25
2023-04-25T10:39:43.759Z,0.90
2023-04-25T10:42:10.364Z,1.08
2023-04-25T10:44:39.099Z,0.90
2023-04-25T10:47:08.568Z,1.00
2023-04-25T10:49:42.944Z,1.30
2023-04-25T10:52:17.597Z,0.80
2023-04-25T10:54:54.452Z,0.70
2023-04-25T10:57:49.624Z,1.23
2023-04-25T11:00:19.713Z,0.70
2023-04-25T11:03:00.043Z,1.08
2023-04-25T11:05:41.075Z,0.68
2023-04-25T11:08:17.308Z,1.17
2023-04-25T11:10:43.888Z,0.80
2023-04-25T11:13:10.431Z,0.98
2023-04-25T11:15:38.043Z,0.80
2023-04-25T11:18:04.746Z,0.85
2023-04-25T11:20:31.778Z,1.02
2023-04-25T11:25:35.558Z,1.15
2023-04-25T11:28:05.111Z,1.15
2023-04-25T11:30:31.946Z,1.00
2023-04-25T11:32:58.737Z,0.68
2023-04-25T11:35:26.754Z,0.68
2023-04-25T11:37:53.673Z,0.82
2023-04-25T11:40:20.449Z,0.60
2023-04-25T11:42:48.218Z,0.73
2023-04-25T11:45:15.609Z,0.95
2023-04-25T11:47:42.410Z,0.73
2023-04-25T11:50:09.600Z,0.88
2023-04-25T11:52:40.666Z,0.80
2023-04-25T11:55:11.133Z,0.98
2023-04-25T11:57:42.773Z,1.13
2023-04-25T12:00:21.197Z,0.82
2023-04-25T12:02:49.335Z,0.80
2023-04-25T12:05:31.244Z,1.13
2023-04-25T12:08:10.172Z,0.73
2023-04-25T12:10:38.848Z,0.93
2023-04-25T12:13:22.816Z,0.85
2023-04-25T12:18:20.758Z,1.00
2023-04-25T12:20:47.346Z,1.35
2023-04-25T12:23:13.872Z,1.05
2023-04-25T12:25:42.897Z,0.90
2023-04-25T12:28:20.628Z,0.90
2023-04-25T12:31:00.731Z,1.00
2023-04-25T12:33:29.733Z,1.60
2023-04-25T12:35:57.176Z,1.27
2023-04-25T12:38:31.346Z,1.00
2023-04-25T12:41:01.410Z,1.00
2023-04-25T12:43:28.071Z,1.02
2023-04-25T12:45:56.201Z,1.10
2023-04-25T12:48:23.649Z,1.10
2023-04-25T12:50:52.704Z,1.45
2023-04-25T12:53:23.993Z,1.50
2023-04-25T12:55:50.535Z,1.35
2023-04-25T12:58:18.594Z,1.23
2023-04-25T13:00:46.093Z,1.50
2023-04-25T13:03:13.601Z,1.40
2023-04-25T13:05:40.866Z,1.30
2023-04-25T13:08:07.527Z,1.15
2023-04-25T13:10:35.093Z,1.30
2023-04-25T13:13:02.282Z,1.52
2023-04-25T13:15:29.133Z,1.23
2023-04-25T13:17:56.785Z,1.20
2023-04-25T13:20:23.648Z,1.20
2023-04-25T13:22:50.236Z,1.58
2023-04-25T13:25:17.476Z,1.25
2023-04-25T13:27:45.320Z,1.20
2023-04-25T13:30:12.484Z,1.38
2023-04-25T13:32:39.570Z,1.25
2023-04-25T13:35:12.575Z,1.10
2023-04-25T13:37:39.714Z,1.23
2023-04-25T13:40:12.239Z,1.30
2023-04-25T13:42:39.491Z,1.45
2023-04-25T13:45:06.728Z,0.95
2023-04-25T13:47:36.021Z,1.00
2023-04-25T13:50:04.165Z,1.00
2023-04-25T13:52:30.979Z,1.38
2023-04-25T13:54:57.507Z,1.30
2023-04-25T13:57:24.317Z,1.33
2023-04-25T13:59:51.621Z,1.40
2023-04-25T14:02:18.344Z,1.00
2023-04-25T14:04:45.023Z,1.30
2023-04-25T14:07:12.047Z,1.00
2023-04-25T14:09:38.645Z,1.42
2023-04-25T14:12:05.368Z,1.02
2023-04-25T14:14:31.907Z,1.20
2023-04-25T14:16:58.583Z,1.42
2023-04-25T14:19:25.614Z,1.00
2023-04-25T14:21:52.206Z,1.55
2023-04-25T14:24:18.780Z,1.30
2023-04-25T14:26:45.562Z,1.20
2023-04-25T14:29:14.612Z,1.13
2023-04-25T14:31:41.946Z,1.70
2023-04-25T14:34:08.990Z,1.23
2023-04-25T14:36:36.819Z,1.77
2023-04-25T14:39:06.091Z,1.10
2023-04-25T14:41:32.863Z,1.88
2023-04-25T14:43:59.414Z,1.50
2023-04-25T14:46:26.733Z,1.45
2023-04-25T14:48:53.742Z,1.67
2023-04-25T14:51:20.327Z,1.58
2023-04-25T14:53:46.894Z,1.48
2023-04-25T14:56:13.635Z,2.08
2023-04-25T14:58:41.363Z,1.92
2023-04-25T15:01:08.149Z,1.73
2023-04-25T15:03:35.294Z,2.10
2023-04-25T15:06:02.002Z,2.13
2023-04-25T15:08:28.495Z,2.08
2023-04-25T15:10:55.066Z,2.83
2023-04-25T15:13:22.049Z,1.92
2023-04-25T15:15:54.459Z,1.85
2023-04-25T15:18:24.745Z,1.98
2023-04-25T15:20:52.693Z,2.20
2023-04-25T15:23:20.738Z,1.80
2023-04-25T15:25:48.213Z,1.70
2023-04-25T15:28:17.868Z,2.08
2023-04-25T15:30:45.688Z,1.77
2023-04-25T15:33:12.248Z,1.67
2023-04-25T15:35:38.819Z,17.75
2023-04-25T15:38:05.901Z,14.52
2023-04-25T15:40:32.528Z,13.82
2023-04-25T15:42:59.616Z,12.25
2023-04-25T15:45:26.746Z,13.27
2023-04-25T15:47:55.781Z,12.52
2023-04-25T15:50:22.971Z,12.10
2023-04-25T15:52:50.593Z,11.98
2023-04-25T15:55:18.427Z,13.85
2023-04-25T15:57:44.988Z,14.02
2023-04-25T16:00:13.202Z,13.70
2023-04-25T16:02:41.013Z,12.73
2023-04-25T16:05:09.027Z,12.27
2023-04-25T16:07:36.280Z,12.50
2023-04-25T16:10:03.406Z,12.43
2023-04-25T16:12:31.148Z,12.45
2023-04-25T16:14:58.238Z,12.15
2023-04-25T16:17:25.866Z,11.95
2023-04-25T16:19:52.433Z,13.52
2023-04-25T16:22:19.097Z,12.45
2023-04-25T16:24:45.660Z,11.82
2023-04-25T16:27:12.297Z,11.20
2023-04-25T16:29:39.303Z,11.98
2023-04-25T16:32:06.223Z,11.57
2023-04-25T16:34:32.805Z,11.68
2023-04-25T16:36:59.905Z,9.80
2023-04-25T16:39:26.489Z,10.50
2023-04-25T16:41:53.469Z,12.57
2023-04-25T16:44:19.988Z,15.00
2023-04-25T16:46:46.563Z,14.40
2023-04-25T16:49:13.188Z,15.75
2023-04-25T16:51:39.801Z,17.38
2023-04-25T16:54:06.460Z,16.67
2023-04-25T16:56:33.007Z,16.60
2023-04-25T16:58:59.582Z,16.70
2023-04-25T17:01:26.369Z,17.30
2023-04-25T17:03:53.163Z,17.30
2023-04-25T17:06:19.861Z,17.50
2023-04-25T17:08:46.456Z,16.83
2023-04-25T17:11:13.154Z,18.48
2023-04-25T17:13:39.974Z,17.52
2023-04-25T17:16:07.473Z,17.38
2023-04-25T17:18:34.084Z,18.90
2023-04-25T17:21:00.712Z,16.90
2023-04-25T17:23:27.314Z,17.67
2023-04-25T17:25:53.832Z,17.00
2023-04-25T17:28:20.393Z,16.55
2023-04-25T17:30:47.009Z,15.95
2023-04-25T17:33:13.711Z,16.73
2023-04-25T17:35:40.675Z,15.07
2023-04-25T17:38:07.356Z,14.90
2023-04-25T17:40:33.877Z,15.20
2023-04-25T17:43:00.405Z,15.43
2023-04-25T17:45:28.571Z,14.80
2023-04-25T17:47:55.166Z,13.98
2023-04-25T17:50:21.694Z,13.85
2023-04-25T17:52:48.659Z,13.60
2023-04-25T17:55:15.373Z,12.98
2023-04-25T17:57:41.886Z,12.07
2023-04-25T18:00:09.357Z,12.48
2023-04-25T18:02:36.707Z,11.48
2023-04-25T18:05:09.131Z,11.95
2023-04-25T18:07:36.366Z,10.80
2023-04-25T18:10:05.962Z,10.40
2023-04-25T18:12:34.039Z,9.27
2023-04-25T18:15:01.791Z,10.55
2023-04-25T18:17:28.590Z,9.45
2023-04-25T18:19:55.470Z,9.63
2023-04-25T18:22:22.370Z,9.82
2023-04-25T18:24:50.789Z,9.50
2023-04-25T18:27:17.419Z,9.73
2023-04-25T18:29:45.416Z,9.73
2023-04-25T18:32:12.551Z,8.50
2023-04-25T18:34:42.074Z,8.18
2023-04-25T18:37:08.830Z,8.98
2023-04-25T18:39:35.353Z,8.90
2023-04-25T18:42:06.706Z,8.80
2023-04-25T18:44:36.594Z,9.00
2023-04-25T18:47:03.258Z,8.48
2023-04-25T18:49:31.318Z,7.80
2023-04-25T18:51:58.058Z,7.55
2023-04-25T18:54:24.719Z,8.00
2023-04-25T18:56:51.743Z,7.45
2023-04-25T18:59:18.640Z,7.88
2023-04-25T19:01:45.753Z,7.32
2023-04-25T19:04:12.446Z,7.20
2023-04-25T19:06:39.137Z,7.88
2023-04-25T19:09:05.757Z,7.85
2023-04-25T19:11:32.287Z,7.32
2023-04-25T19:13:59.242Z,7.30
2023-04-25T19:16:27.404Z,7.45
2023-04-25T19:18:55.392Z,9.88
2023-04-25T19:21:22.560Z,10.35
2023-04-25T19:23:49.234Z,12.02
2023-04-25T19:26:16.407Z,11.88
2023-04-25T19:28:44.904Z,12.98
2023-04-25T19:31:13.053Z,14.65
2023-04-25T19:33:39.643Z,15.60
2023-04-25T19:36:06.211Z,17.90
2023-04-25T19:38:32.750Z,16.33
2023-04-25T19:40:59.298Z,15.07
2023-04-25T19:43:26.150Z,17.27
2023-04-25T19:45:52.861Z,16.80
2023-04-25T19:48:19.931Z,17.20
2023-04-25T19:50:46.493Z,17.17
2023-04-25T19:53:13.008Z,17.17
2023-04-25T19:55:39.613Z,17.48
2023-04-25T19:58:06.918Z,17.00
2023-04-25T20:00:33.477Z,18.17
2023-04-25T20:03:00.063Z,17.40
2023-04-25T20:05:27.420Z,16.45
2023-04-25T20:07:53.981Z,15.93
2023-04-25T20:10:20.711Z,16.00
2023-04-25T20:12:47.296Z,15.23
2023-04-25T20:15:13.869Z,16.40
2023-04-25T20:17:42.339Z,15.70
2023-04-25T20:20:10.829Z,15.05
2023-04-25T20:22:40.048Z,14.50
2023-04-25T20:25:08.746Z,13.70
2023-04-25T20:27:37.837Z,13.68
2023-04-25T20:30:08.418Z,14.50
2023-04-25T20:32:36.356Z,13.93
2023-04-25T20:35:09.025Z,12.43
2023-04-25T20:37:36.280Z,14.70
2023-04-25T20:40:06.322Z,14.30
2023-04-25T20:42:32.901Z,14.68
2023-04-25T20:44:59.432Z,14.13
2023-04-25T20:47:26.210Z,15.10
2023-04-25T20:49:53.011Z,14.65
2023-04-25T20:52:19.530Z,13.75
2023-04-25T20:54:50.558Z,14.38
2023-04-25T20:57:17.538Z,14.73
2023-04-25T20:59:44.782Z,15.05
2023-04-25T21:02:12.720Z,15.77
2023-04-25T21:04:39.474Z,15.07
2023-04-25T21:07:06.313Z,15.13
2023-04-25T21:09:32.867Z,14.43
2023-04-25T21:11:59.444Z,15.30
2023-04-25T21:14:26.157Z,14.70
2023-04-25T21:16:52.748Z,14.15
2023-04-25T21:19:19.276Z,14.13
2023-04-25T21:21:45.885Z,13.85
2023-04-25T21:24:14.397Z,14.75
2023-04-25T21:26:40.959Z,14.63
2023-04-25T21:29:07.538Z,13.60
2023-04-25T21:31:34.638Z,13.40
2023-04-25T21:34:01.215Z,13.93
2023-04-25T21:36:27.844Z,13.80
2023-04-25T21:38:54.647Z,14.20
2023-04-25T21:41:22.539Z,12.93
2023-04-25T21:43:49.119Z,13.20
2023-04-25T21:46:23.297Z,12.60
2023-04-25T21:48:51.641Z,13.55
2023-04-25T21:51:18.706Z,12.88
2023-04-25T21:53:45.282Z,13.20
2023-04-25T21:56:12.422Z,13.27
2023-04-25T21:58:38.921Z,13.43
2023-04-25T22:01:05.462Z,12.52
2023-04-25T22:03:32.617Z,12.82
2023-04-25T22:05:59.284Z,12.45
2023-04-25T22:08:25.954Z,12.88
2023-04-25T22:10:55.089Z,11.68
2023-04-25T22:13:22.696Z,12.38
2023-04-25T22:15:49.327Z,11.85
2023-04-25T22:18:16.332Z,12.60
2023-04-25T22:20:44.337Z,12.20
2023-04-25T22:23:12.173Z,11.68
2023-04-25T22:25:38.814Z,11.85
2023-04-25T22:28:05.388Z,11.18
2023-04-25T22:30:32.637Z,11.85
2023-04-25T22:32:59.317Z,10.55
2023-04-25T22:35:26.159Z,11.60
2023-04-25T22:37:53.013Z,10.60
2023-04-25T22:40:19.615Z,11.15
2023-04-25T22:42:46.197Z,11.27
2023-04-25T22:45:12.931Z,10.73
2023-04-25T22:47:40.346Z,10.15
2023-04-25T22:50:12.379Z,9.95
2023-04-25T22:52:39.815Z,9.88
2023-04-25T22:55:06.920Z,10.55
2023-04-25T22:57:33.673Z,9.48
2023-04-25T23:00:00.240Z,10.57
2023-04-25T23:02:27.395Z,9.40
2023-04-25T23:04:54.951Z,9.70
2023-04-25T23:07:21.619Z,9.30
2023-04-25T23:09:48.131Z,9.25
2023-04-25T23:12:18.053Z,9.18
2023-04-25T23:14:48.790Z,9.02
2023-04-25T23:17:15.275Z,9.50
2023-04-25T23:19:41.849Z,8.65
2023-04-25T23:22:08.674Z,9.05
2023-04-25T23:24:41.562Z,8.77
2023-04-25T23:27:08.110Z,8.30
2023-04-25T23:29:34.785Z,8.48
2023-04-25T23:32:04.532Z,8.43
2023-04-25T23:34:31.879Z,8.27
2023-04-25T23:37:04.456Z,8.20
2023-04-25T23:39:31.051Z,7.70
2023-04-25T23:41:57.780Z,8.15
2023-04-25T23:44:24.404Z,8.02
2023-04-25T23:46:51.282Z,7.28
2023-04-25T23:49:17.854Z,7.53
2023-04-25T23:51:44.416Z,7.55
2023-04-25T23:54:11.159Z,6.93
2023-04-25T23:56:37.787Z,7.63
2023-04-25T23:59:04.869Z,6.75
